Time;durP1;ratioP1;P1;durP2;ratioP2;P2;SDS_P1;SDS_P2;PMS_P1;PMS_P2;Temp;Humidity;BMP_temperature;BMP_pressure;BME280_temperature;BME280_humidity;BME280_pressure;Samples;Min_cycle;Max_cycle;Signal;HPM_P1;HPM_P2
2022/07/02 00:01:19;;;;;;;43.38;37.83;;;22.50;99.90;;;;;;5075197;28;20033;-52
2022/07/02 00:04:06;;;;;;;43.92;37.53;;;22.50;99.90;;;;;;5075727;28;20060;-52
2022/07/02 00:06:37;;;;;;;45.95;40.67;;;22.50;99.90;;;;;;5075147;28;20032;-52
2022/07/02 00:09:03;;;;;;;41.50;37.17;;;22.50;99.90;;;;;;5074005;28;20032;-52
2022/07/02 00:11:32;;;;;;;43.05;38.47;;;22.50;99.90;;;;;;5075182;28;20051;-52
2022/07/02 00:13:58;;;;;;;52.72;40.35;;;22.60;99.90;;;;;;5074978;28;20229;-52
2022/07/02 00:16:24;;;;;;;47.75;40.17;;;22.50;99.90;;;;;;5075197;28;20262;-52
2022/07/02 00:18:51;;;;;;;46.35;39.25;;;22.60;99.90;;;;;;5039702;28;20045;-52
2022/07/02 00:21:18;;;;;;;49.75;39.85;;;22.60;99.90;;;;;;5074804;28;20068;-52
2022/07/02 00:23:44;;;;;;;46.10;40.45;;;22.60;99.90;;;;;;5073531;28;20526;-52
2022/07/02 00:26:20;;;;;;;48.58;40.13;;;22.60;99.90;;;;;;5074887;28;20417;-52
2022/07/02 00:28:53;;;;;;;45.08;40.28;;;22.60;99.90;;;;;;5073456;28;20032;-52
2022/07/02 00:31:20;;;;;;;42.10;37.58;;;22.60;99.90;;;;;;5074863;28;20096;-52
2022/07/02 00:33:47;;;;;;;45.72;38.72;;;22.60;99.90;;;;;;5074740;28;20039;-52
2022/07/02 00:36:21;;;;;;;46.53;40.42;;;22.50;99.90;;;;;;5073514;28;20039;-52
2022/07/02 00:38:51;;;;;;;47.25;38.88;;;22.50;99.90;;;;;;5074758;28;20030;-52
2022/07/02 00:41:18;;;;;;;44.28;39.13;;;22.50;99.90;;;;;;5074825;28;20170;-52
2022/07/02 00:43:45;;;;;;;41.85;37.08;;;22.60;99.90;;;;;;5074405;28;20401;-52
2022/07/02 00:46:13;;;;;;;42.05;37.53;;;22.60;99.90;;;;;;5090105;28;20067;-52
2022/07/02 00:48:39;;;;;;;42.22;37.78;;;22.60;99.90;;;;;;5074556;28;20066;-52
2022/07/02 00:51:05;;;;;;;49.97;40.95;;;22.60;99.90;;;;;;5074587;28;20025;-52
2022/07/02 00:53:31;;;;;;;46.17;39.55;;;22.60;99.90;;;;;;5073237;28;20024;-52
2022/07/02 00:55:58;;;;;;;48.17;39.20;;;22.60;99.90;;;;;;5074489;28;20545;-52
2022/07/02 00:58:25;;;;;;;47.20;37.28;;;22.50;99.90;;;;;;5073035;28;20051;-52
2022/07/02 01:00:51;;;;;;;46.95;38.05;;;22.40;99.90;;;;;;5074523;28;20036;-52
2022/07/02 01:03:22;;;;;;;45.55;36.67;;;22.40;99.90;;;;;;5074466;28;20025;-52
2022/07/02 01:05:51;;;;;;;37.03;27.00;;;22.50;99.90;;;;;;5074581;28;20115;-52
2022/07/02 01:11:04;;;;;;;25.05;9.15;;;22.60;99.90;;;;;;5080540;28;20028;-52
2022/07/02 01:13:33;;;;;;;18.58;6.57;;;22.70;99.90;;;;;;5080998;28;20389;-52
2022/07/02 01:16:00;;;;;;;20.27;5.88;;;22.80;99.90;;;;;;5080866;28;20036;-52
2022/07/02 01:18:26;;;;;;;23.15;5.82;;;23.00;99.90;;;;;;5079555;28;20078;-52
2022/07/02 01:20:52;;;;;;;17.95;5.43;;;23.10;99.90;;;;;;5079659;28;20165;-52
2022/07/02 01:23:18;;;;;;;21.90;5.22;;;23.10;99.90;;;;;;5079721;28;20031;-52
2022/07/02 01:25:51;;;;;;;20.90;4.53;;;23.20;99.90;;;;;;5080662;28;20032;-52
2022/07/02 01:28:19;;;;;;;15.55;4.75;;;23.20;99.90;;;;;;5080960;28;20174;-52
2022/07/02 01:30:46;;;;;;;14.38;3.67;;;23.10;99.90;;;;;;5079740;28;20056;-52
2022/07/02 01:33:12;;;;;;;14.55;3.45;;;23.10;99.90;;;;;;5062678;28;20033;-52
2022/07/02 01:35:38;;;;;;;14.45;3.80;;;23.10;99.90;;;;;;5079612;28;20530;-52
2022/07/02 01:38:04;;;;;;;17.27;3.78;;;23.20;99.90;;;;;;5096347;28;20024;-52
2022/07/02 01:40:29;;;;;;;18.73;3.80;;;23.10;99.90;;;;;;5080936;28;20054;-52
2022/07/02 01:42:55;;;;;;;15.25;3.97;;;23.20;99.90;;;;;;5080534;28;20114;-52
2022/07/02 01:45:21;;;;;;;11.23;3.75;;;23.20;99.90;;;;;;5080699;28;20029;-53
2022/07/02 01:47:47;;;;;;;11.50;3.75;;;23.20;99.90;;;;;;5080663;28;20036;-52
2022/07/02 01:50:13;;;;;;;17.67;3.90;;;23.30;99.90;;;;;;5080716;28;20020;-52
2022/07/02 01:52:39;;;;;;;9.20;3.90;;;23.30;99.90;;;;;;5080332;28;20496;-52
2022/07/02 01:55:06;;;;;;;10.02;3.72;;;23.30;99.90;;;;;;5080606;28;20111;-52
2022/07/02 01:57:35;;;;;;;10.00;3.80;;;23.40;99.90;;;;;;5080687;28;20035;-52
2022/07/02 02:00:04;;;;;;;11.95;4.05;;;23.30;99.90;;;;;;5080611;28;20247;-53
2022/07/02 02:02:30;;;;;;;15.52;3.70;;;23.40;99.10;;;;;;5080549;28;20461;-53
2022/07/02 02:04:56;;;;;;;12.18;3.50;;;23.30;98.10;;;;;;5080529;28;20151;-52
2022/07/02 02:07:22;;;;;;;19.33;4.40;;;23.40;98.20;;;;;;5080451;28;20430;-52
2022/07/02 02:09:48;;;;;;;8.15;3.45;;;23.40;98.40;;;;;;5080444;28;20032;-52
2022/07/02 02:12:14;;;;;;;9.30;3.22;;;23.50;98.70;;;;;;5062460;28;20142;-53
2022/07/02 02:14:40;;;;;;;10.75;3.85;;;23.50;96.50;;;;;;5080293;28;20040;-52
2022/07/02 02:17:06;;;;;;;14.23;3.53;;;23.60;96.50;;;;;;5080503;28;20032;-53
2022/07/02 02:19:32;;;;;;;11.70;3.53;;;23.50;97.00;;;;;;5080610;28;20039;-52
2022/07/02 02:22:00;;;;;;;11.73;3.65;;;23.50;97.60;;;;;;5077076;28;20055;-52
2022/07/02 02:24:26;;;;;;;9.70;3.38;;;23.50;97.30;;;;;;5077169;28;20036;-52
2022/07/02 02:26:52;;;;;;;17.25;4.10;;;23.50;97.50;;;;;;5077092;28;20031;-52
2022/07/02 02:29:18;;;;;;;12.35;5.03;;;23.50;97.00;;;;;;5076972;28;20029;-52
2022/07/02 02:31:43;;;;;;;14.32;5.75;;;23.50;97.00;;;;;;5077154;28;20378;-52
2022/07/02 02:34:09;;;;;;;25.33;6.57;;;23.50;96.70;;;;;;5075659;28;20028;-52
2022/07/02 02:36:35;;;;;;;11.45;6.40;;;23.40;96.80;;;;;;5076945;28;20178;-52
2022/07/02 02:39:01;;;;;;;13.38;6.75;;;23.20;97.30;;;;;;5075801;28;20028;-52
2022/07/02 02:41:28;;;;;;;19.30;7.85;;;23.20;97.90;;;;;;5076849;28;20036;-52
2022/07/02 02:43:53;;;;;;;18.42;8.07;;;23.20;97.60;;;;;;5076591;28;20051;-52
2022/07/02 02:46:19;;;;;;;13.18;7.38;;;23.10;98.00;;;;;;5076775;28;20119;-52
2022/07/02 02:48:45;;;;;;;22.55;8.80;;;23.10;98.20;;;;;;5075396;28;20075;-52
2022/07/02 03:04:24;;;;;;;19.52;9.98;;;22.90;99.90;;;;;;5132729;27;20389;-54
2022/07/02 03:06:50;;;;;;;17.10;9.43;;;22.20;99.90;;;;;;5132836;28;20027;-54
2022/07/02 03:09:16;;;;;;;20.17;10.32;;;22.00;99.90;;;;;;5132750;28;20027;-54
2022/07/02 03:11:42;;;;;;;15.27;10.13;;;22.00;99.90;;;;;;5132857;28;20479;-54
2022/07/02 03:14:08;;;;;;;16.45;9.98;;;22.10;99.90;;;;;;5132698;28;20027;-54
2022/07/02 03:16:34;;;;;;;18.92;10.90;;;22.00;99.90;;;;;;5132584;27;20533;-54
2022/07/02 03:19:00;;;;;;;18.33;9.88;;;21.80;99.90;;;;;;5132542;27;20023;-54
2022/07/02 03:21:26;;;;;;;19.77;10.68;;;21.90;99.90;;;;;;5132608;28;20068;-54
2022/07/02 03:23:51;;;;;;;19.98;10.70;;;21.70;99.90;;;;;;5132547;28;20034;-54
2022/07/02 03:26:17;;;;;;;20.15;11.35;;;21.80;99.90;;;;;;5132409;28;20126;-54
2022/07/02 03:28:43;;;;;;;13.82;10.23;;;21.60;99.90;;;;;;5132357;27;20023;-54
2022/07/02 03:31:09;;;;;;;17.55;10.35;;;21.60;99.90;;;;;;5132310;27;20038;-54
2022/07/02 03:33:35;;;;;;;17.73;10.13;;;21.60;99.90;;;;;;5132251;28;20031;-54
2022/07/02 03:36:01;;;;;;;18.13;11.10;;;21.40;99.90;;;;;;5132390;28;20417;-54
2022/07/02 03:38:27;;;;;;;15.52;10.32;;;21.40;99.90;;;;;;5132152;28;20471;-54
2022/07/02 03:40:53;;;;;;;18.70;11.32;;;21.30;99.90;;;;;;5132176;28;20465;-54
2022/07/02 03:43:19;;;;;;;20.88;10.73;;;21.20;99.90;;;;;;5132088;28;20043;-54
2022/07/02 03:45:45;;;;;;;15.60;10.43;;;21.10;99.90;;;;;;5132018;28;20031;-54
2022/07/02 03:48:11;;;;;;;20.52;11.85;;;21.10;99.90;;;;;;5132053;27;20042;-54
2022/07/02 03:50:40;;;;;;;20.33;11.40;;;21.10;99.90;;;;;;5132500;27;20058;-54
2022/07/02 03:53:06;;;;;;;20.15;10.80;;;21.10;99.90;;;;;;5131737;27;20490;-54
2022/07/02 03:55:32;;;;;;;16.95;11.45;;;21.00;99.90;;;;;;5131805;27;20028;-54
2022/07/02 03:57:58;;;;;;;24.27;11.60;;;21.10;99.90;;;;;;5131767;27;20050;-54
2022/07/02 04:00:24;;;;;;;18.80;10.82;;;20.90;99.90;;;;;;5131632;28;20035;-54
2022/07/02 04:02:50;;;;;;;21.08;11.43;;;20.80;99.90;;;;;;5131441;27;20415;-54
2022/07/02 04:05:16;;;;;;;18.67;11.40;;;20.90;99.90;;;;;;5118616;28;20033;-54
2022/07/02 04:07:42;;;;;;;15.05;10.82;;;21.00;99.90;;;;;;5117949;28;20081;-54
2022/07/02 04:10:08;;;;;;;20.98;11.18;;;21.10;99.90;;;;;;5117731;28;20050;-54
2022/07/02 04:12:34;;;;;;;16.58;10.68;;;21.10;99.90;;;;;;5117748;28;20020;-54
2022/07/02 04:15:00;;;;;;;16.95;10.95;;;21.10;99.90;;;;;;5117810;28;20114;-54
2022/07/02 04:17:26;;;;;;;17.92;10.63;;;21.10;99.90;;;;;;5117759;28;20066;-54
2022/07/02 04:19:52;;;;;;;21.50;10.35;;;21.00;99.90;;;;;;5117630;28;20456;-54
2022/07/02 04:22:18;;;;;;;17.92;11.10;;;21.00;99.90;;;;;;5117606;28;20072;-54
2022/07/02 04:24:44;;;;;;;16.50;10.27;;;20.90;99.90;;;;;;5117549;28;20031;-54
2022/07/02 04:27:10;;;;;;;16.83;10.52;;;20.90;99.90;;;;;;5117464;28;20170;-54
2022/07/02 04:29:36;;;;;;;21.33;10.57;;;20.90;99.90;;;;;;5117443;28;20038;-54
2022/07/02 04:32:02;;;;;;;17.90;10.00;;;20.90;99.90;;;;;;5117287;28;20023;-54
2022/07/02 04:34:29;;;;;;;19.13;10.63;;;21.00;99.90;;;;;;5117452;28;20023;-54
2022/07/02 04:36:54;;;;;;;24.27;12.63;;;21.00;99.90;;;;;;5117417;28;20020;-54
2022/07/02 04:39:21;;;;;;;17.77;10.27;;;21.00;99.90;;;;;;5117247;28;20020;-54
2022/07/02 04:41:46;;;;;;;17.65;11.13;;;21.00;99.90;;;;;;5117323;28;20028;-54
2022/07/02 04:44:12;;;;;;;26.17;11.55;;;21.00;99.90;;;;;;5117107;28;20084;-54
2022/07/02 04:46:38;;;;;;;21.25;12.68;;;21.00;99.90;;;;;;5117154;28;20024;-54
2022/07/02 04:49:04;;;;;;;16.33;11.60;;;21.00;99.90;;;;;;5117145;28;20027;-54
2022/07/02 04:51:30;;;;;;;19.83;10.98;;;20.90;99.90;;;;;;5117094;28;20015;-54
2022/07/02 04:53:56;;;;;;;20.90;11.93;;;20.90;99.90;;;;;;5116865;28;20521;-54
2022/07/02 04:56:22;;;;;;;25.27;12.75;;;21.00;99.90;;;;;;5117074;28;20372;-54
2022/07/02 04:58:48;;;;;;;26.05;14.85;;;21.10;99.90;;;;;;5116804;28;20015;-54
2022/07/02 05:01:13;;;;;;;25.83;13.93;;;21.20;99.90;;;;;;5116924;28;20471;-54
2022/07/02 05:03:39;;;;;;;30.52;13.80;;;21.30;99.90;;;;;;5116713;28;20047;-54
2022/07/02 05:06:05;;;;;;;29.48;14.60;;;21.20;99.90;;;;;;5116743;28;20038;-54
2022/07/02 05:08:31;;;;;;;27.02;14.98;;;21.30;99.90;;;;;;5116938;28;20032;-54
2022/07/02 05:10:57;;;;;;;24.95;15.15;;;21.40;99.90;;;;;;5116848;28;20042;-54
2022/07/02 05:13:23;;;;;;;30.45;15.13;;;21.50;99.90;;;;;;5116512;28;20028;-54
2022/07/02 05:15:50;;;;;;;35.92;16.40;;;21.50;99.90;;;;;;5115601;28;20024;-54
2022/07/02 05:18:16;;;;;;;20.33;13.13;;;21.50;99.90;;;;;;5116611;28;20054;-54
2022/07/02 05:20:42;;;;;;;25.10;13.65;;;21.40;99.90;;;;;;5116770;28;20024;-54
2022/07/02 05:23:08;;;;;;;25.80;12.77;;;21.40;99.90;;;;;;5116360;28;20027;-54
2022/07/02 05:25:34;;;;;;;24.30;14.15;;;21.40;99.90;;;;;;5116484;28;20342;-54
2022/07/02 05:28:00;;;;;;;24.38;13.05;;;21.40;99.90;;;;;;5116372;28;20126;-54
2022/07/02 05:30:26;;;;;;;23.23;12.40;;;21.30;99.90;;;;;;5116222;28;20024;-54
2022/07/02 05:32:52;;;;;;;25.75;12.52;;;21.40;99.90;;;;;;5116205;28;20038;-54
2022/07/02 05:35:18;;;;;;;25.05;12.32;;;21.50;99.90;;;;;;5116286;28;20019;-54
2022/07/02 05:37:44;;;;;;;27.13;11.80;;;21.60;99.90;;;;;;5116174;28;20028;-54
2022/07/02 05:40:10;;;;;;;23.77;12.60;;;21.60;99.90;;;;;;5116074;28;20388;-54
2022/07/02 05:42:36;;;;;;;18.75;10.43;;;21.70;99.90;;;;;;5116065;28;20053;-54
2022/07/02 05:45:02;;;;;;;29.58;11.32;;;21.50;99.90;;;;;;5116120;28;20492;-54
2022/07/02 05:47:28;;;;;;;17.58;10.05;;;21.60;99.90;;;;;;5115942;28;20468;-54
2022/07/02 05:49:55;;;;;;;26.50;11.65;;;21.70;99.90;;;;;;5115972;28;20092;-54
2022/07/02 05:52:21;;;;;;;18.42;9.93;;;21.80;99.90;;;;;;5115822;28;20031;-54
2022/07/02 05:54:47;;;;;;;22.65;10.80;;;21.80;99.90;;;;;;5115932;28;20119;-54
2022/07/02 05:57:13;;;;;;;24.83;10.98;;;21.80;99.90;;;;;;5115698;28;20500;-54
2022/07/02 05:59:39;;;;;;;14.60;10.38;;;21.90;99.90;;;;;;5115672;28;20423;-54
2022/07/02 06:02:05;;;;;;;23.48;11.10;;;21.80;99.90;;;;;;5115593;28;20476;-54
2022/07/02 06:04:32;;;;;;;23.30;10.45;;;21.80;99.90;;;;;;5115623;28;20031;-54
2022/07/02 06:09:43;;;;;;;15.27;9.57;;;21.70;99.90;;;;;;5115580;28;20139;-54
2022/07/02 06:12:09;;;;;;;15.18;8.73;;;21.80;99.90;;;;;;5115767;28;20066;-54
2022/07/02 06:14:35;;;;;;;16.42;8.70;;;21.60;99.90;;;;;;5115622;28;20059;-54
2022/07/02 06:17:02;;;;;;;16.52;8.55;;;21.70;99.90;;;;;;5115427;28;20377;-54
2022/07/02 06:19:27;;;;;;;17.10;8.18;;;21.80;99.90;;;;;;5115460;28;20024;-54
2022/07/02 06:21:53;;;;;;;17.90;8.38;;;21.90;99.90;;;;;;5115483;28;20460;-54
2022/07/02 06:24:19;;;;;;;12.23;5.40;;;22.00;99.90;;;;;;5115268;28;20353;-54
2022/07/02 06:26:45;;;;;;;14.05;6.00;;;22.10;99.90;;;;;;5115154;28;20023;-54
2022/07/02 06:29:11;;;;;;;17.25;5.95;;;22.20;99.90;;;;;;5115276;28;20033;-54
2022/07/02 06:31:37;;;;;;;12.55;5.53;;;22.20;99.90;;;;;;5115284;28;20406;-54
2022/07/02 06:34:04;;;;;;;13.45;5.10;;;22.30;99.90;;;;;;5115263;28;20027;-54
2022/07/02 06:36:30;;;;;;;16.38;4.63;;;22.50;99.90;;;;;;5115145;28;20482;-54
2022/07/02 06:38:56;;;;;;;12.77;4.30;;;22.60;99.90;;;;;;5115186;28;20103;-54
2022/07/02 06:44:07;;;;;;;18.45;4.32;;;22.90;99.90;;;;;;5115328;28;20027;-54
2022/07/02 06:46:36;;;;;;;21.23;4.93;;;22.90;99.90;;;;;;5115247;28;20024;-54
2022/07/02 06:49:02;;;;;;;11.93;4.57;;;23.10;99.90;;;;;;5115012;28;20042;-54
2022/07/02 06:51:28;;;;;;;11.95;3.90;;;23.40;99.90;;;;;;5115035;28;20028;-54
2022/07/02 06:54:00;;;;;;;22.83;4.72;;;23.70;99.90;;;;;;5115127;28;20533;-54
2022/07/02 06:56:31;;;;;;;11.90;4.15;;;23.90;99.90;;;;;;5114960;28;20084;-54
2022/07/02 06:58:57;;;;;;;16.23;3.97;;;23.80;99.90;;;;;;5114867;28;20058;-54
2022/07/02 07:01:23;;;;;;;8.48;3.40;;;24.00;99.90;;;;;;5113668;28;20020;-54
2022/07/02 07:03:49;;;;;;;10.73;3.53;;;24.30;99.90;;;;;;5114693;28;20055;-54
2022/07/02 07:06:15;;;;;;;10.35;3.67;;;24.60;99.90;;;;;;5114873;28;20441;-54
2022/07/02 07:08:41;;;;;;;9.77;3.60;;;24.90;99.90;;;;;;5114885;28;20066;-54
2022/07/02 07:11:07;;;;;;;10.13;2.65;;;25.20;97.30;;;;;;5114950;28;20027;-54
2022/07/02 07:13:33;;;;;;;7.07;2.58;;;25.50;96.00;;;;;;5114713;28;20024;-54
2022/07/02 07:15:59;;;;;;;7.18;2.83;;;25.80;91.60;;;;;;5114951;28;20083;-54
2022/07/02 07:18:25;;;;;;;7.80;2.45;;;25.50;86.60;;;;;;5114649;28;20107;-54
2022/07/02 07:20:53;;;;;;;13.95;3.30;;;25.60;84.10;;;;;;5114735;28;20031;-54
2022/07/02 07:23:18;;;;;;;10.95;2.20;;;25.70;83.30;;;;;;5114806;28;20019;-54
2022/07/02 07:25:44;;;;;;;6.30;2.85;;;25.80;84.00;;;;;;5113370;28;20560;-54
2022/07/02 07:28:10;;;;;;;20.30;3.92;;;26.20;86.40;;;;;;5114680;28;20041;-54
2022/07/02 07:30:36;;;;;;;11.32;2.53;;;26.40;83.10;;;;;;5114643;28;20582;-54
2022/07/02 07:33:02;;;;;;;8.35;2.50;;;26.50;78.30;;;;;;5114526;28;20112;-54
2022/07/02 07:35:28;;;;;;;7.57;2.45;;;26.40;77.80;;;;;;5114641;28;20024;-54
2022/07/02 07:37:57;;;;;;;4.15;2.50;;;26.60;79.40;;;;;;5114559;28;20465;-54
2022/07/02 07:40:24;;;;;;;9.88;2.40;;;27.20;78.90;;;;;;5117630;28;20055;-55
2022/07/02 07:42:50;;;;;;;5.13;1.77;;;27.50;75.40;;;;;;5118337;28;20095;-54
2022/07/02 07:45:16;;;;;;;6.85;2.13;;;27.10;68.60;;;;;;5118399;28;20143;-55
2022/07/02 07:47:41;;;;;;;5.97;1.88;;;27.50;70.60;;;;;;5118446;28;20085;-55
2022/07/02 07:50:08;;;;;;;19.95;2.65;;;27.80;70.80;;;;;;5118341;28;20489;-55
2022/07/02 07:52:34;;;;;;;8.98;2.08;;;28.20;70.40;;;;;;5118208;27;20028;-54
2022/07/02 07:55:00;;;;;;;3.88;1.42;;;27.50;64.10;;;;;;5118278;28;20031;-54
2022/07/02 07:57:26;;;;;;;5.63;1.65;;;26.60;64.10;;;;;;5118191;28;20116;-54
2022/07/02 07:59:51;;;;;;;7.28;1.50;;;26.60;65.30;;;;;;5117965;28;20027;-55
2022/07/02 08:02:17;;;;;;;6.35;1.50;;;26.90;63.50;;;;;;5117858;28;20043;-55
2022/07/02 08:04:43;;;;;;;5.63;1.50;;;27.10;64.50;;;;;;5117996;28;20389;-55
2022/07/02 08:07:09;;;;;;;9.57;6.25;;;27.50;66.10;;;;;;5117977;28;20063;-54
2022/07/02 08:09:35;;;;;;;16.77;7.97;;;28.20;66.50;;;;;;5117891;28;20107;-55
2022/07/02 08:12:01;;;;;;;5.82;3.30;;;28.10;66.30;;;;;;5117808;28;20488;-55
2022/07/02 08:14:27;;;;;;;8.18;2.47;;;28.40;65.10;;;;;;5117754;28;20024;-54
2022/07/02 08:16:53;;;;;;;9.38;3.03;;;28.60;66.30;;;;;;5117695;28;20641;-55
2022/07/02 08:19:18;;;;;;;7.18;2.55;;;29.10;67.10;;;;;;5117815;28;20590;-55
2022/07/02 08:21:44;;;;;;;13.65;5.45;;;29.20;62.10;;;;;;5117599;28;20084;-55
2022/07/02 08:24:10;;;;;;;5.07;2.17;;;28.40;65.30;;;;;;5117638;28;20031;-55
2022/07/02 08:26:36;;;;;;;2.72;1.40;;;29.20;64.70;;;;;;5117612;28;20114;-55
2022/07/02 08:29:02;;;;;;;4.63;1.75;;;29.60;63.80;;;;;;5117410;28;20030;-55
2022/07/02 08:31:28;;;;;;;6.22;2.38;;;29.80;62.30;;;;;;5117570;28;20034;-55
2022/07/02 08:33:54;;;;;;;3.67;1.20;;;29.50;59.40;;;;;;5117496;28;20053;-55
2022/07/02 08:36:20;;;;;;;7.45;1.50;;;29.50;57.90;;;;;;5117395;28;20027;-55
2022/07/02 08:38:46;;;;;;;5.22;2.55;;;29.50;58.20;;;;;;5117425;28;20031;-54
2022/07/02 08:41:13;;;;;;;5.35;2.38;;;29.90;59.20;;;;;;5116057;28;20098;-55
2022/07/02 08:43:41;;;;;;;5.40;1.23;;;30.20;58.20;;;;;;5117380;28;20030;-55
2022/07/02 08:46:08;;;;;;;6.50;1.30;;;29.90;57.50;;;;;;5117215;28;20028;-55
2022/07/02 08:48:34;;;;;;;4.97;1.15;;;29.70;56.40;;;;;;5115876;28;20028;-54
2022/07/02 08:51:00;;;;;;;10.60;1.40;;;29.40;56.70;;;;;;5116889;28;20043;-55
2022/07/02 08:53:26;;;;;;;7.07;2.08;;;29.40;57.40;;;;;;5116852;28;20042;-54
2022/07/02 08:55:54;;;;;;;8.38;1.45;;;29.50;58.00;;;;;;5117103;28;20107;-54
2022/07/02 08:58:20;;;;;;;16.00;3.10;;;29.70;58.90;;;;;;5117040;28;20049;-54
2022/07/02 09:00:48;;;;;;;8.00;1.75;;;30.00;57.80;;;;;;5117007;28;20039;-55
2022/07/02 09:03:18;;;;;;;5.85;2.20;;;30.30;55.90;;;;;;5116731;28;20052;-55
2022/07/02 09:05:47;;;;;;;7.05;1.40;;;30.30;55.90;;;;;;5116816;28;20034;-55
2022/07/02 09:08:13;;;;;;;3.63;1.20;;;30.40;56.10;;;;;;5116788;28;20413;-55
2022/07/02 09:10:40;;;;;;;4.45;1.20;;;30.50;54.00;;;;;;5116785;28;20023;-54
2022/07/02 09:13:06;;;;;;;6.15;2.03;;;30.20;54.20;;;;;;5116471;28;20085;-55
2022/07/02 09:15:34;;;;;;;5.90;1.80;;;30.90;57.60;;;;;;5116515;28;20131;-55
2022/07/02 09:18:00;;;;;;;3.30;1.65;;;30.70;53.20;;;;;;5116567;28;20036;-55
2022/07/02 09:20:26;;;;;;;6.13;1.80;;;30.20;54.30;;;;;;5116455;28;20046;-55
2022/07/02 09:22:53;;;;;;;7.57;1.52;;;30.40;54.60;;;;;;5115270;28;20031;-55
2022/07/02 09:25:25;;;;;;;6.75;1.30;;;30.30;53.40;;;;;;5116302;28;20054;-55
2022/07/02 09:28:03;;;;;;;8.60;2.25;;;30.40;54.80;;;;;;5116408;28;20444;-55
2022/07/02 09:30:31;;;;;;;2.97;1.50;;;30.30;55.00;;;;;;5116476;28;20155;-55
2022/07/02 09:35:42;;;;;;;14.13;1.83;;;30.00;54.90;;;;;;5116222;28;20028;-55
2022/07/02 09:38:10;;;;;;;6.30;2.45;;;30.10;54.00;;;;;;5116165;28;20275;-55
2022/07/02 09:40:52;;;;;;;3.95;1.48;;;30.20;54.40;;;;;;5116199;28;20024;-55
2022/07/02 09:43:29;;;;;;;5.47;1.70;;;30.70;55.20;;;;;;5116089;28;20035;-55
2022/07/02 09:45:57;;;;;;;6.00;1.83;;;31.00;53.40;;;;;;5115993;28;20031;-55
2022/07/02 09:48:23;;;;;;;4.85;1.38;;;31.00;53.40;;;;;;5115855;28;20086;-55
2022/07/02 09:50:49;;;;;;;10.30;2.08;;;30.40;55.00;;;;;;5116031;28;20072;-55
2022/07/02 09:53:15;;;;;;;11.65;2.08;;;30.30;55.50;;;;;;5115933;28;20032;-55
2022/07/02 09:55:48;;;;;;;8.05;1.73;;;30.30;56.30;;;;;;5115946;28;20476;-55
2022/07/02 09:58:22;;;;;;;7.50;2.03;;;30.40;55.80;;;;;;5115951;28;20101;-55
2022/07/02 10:00:48;;;;;;;4.30;1.52;;;29.90;55.50;;;;;;5115682;28;20118;-55
2022/07/02 10:03:13;;;;;;;3.85;1.40;;;30.60;53.90;;;;;;5115060;28;20096;-55
2022/07/02 10:05:44;;;;;;;4.05;1.77;;;30.90;53.50;;;;;;5115712;28;20035;-55
2022/07/02 10:08:11;;;;;;;4.32;1.80;;;30.40;52.90;;;;;;5115658;28;20392;-55
2022/07/02 10:10:40;;;;;;;3.40;1.55;;;30.30;53.70;;;;;;5115500;28;20087;-55
2022/07/02 10:13:12;;;;;;;7.50;1.67;;;29.90;53.10;;;;;;5115470;28;20020;-54
2022/07/02 10:15:47;;;;;;;5.70;1.65;;;30.50;56.80;;;;;;5115355;28;20031;-55
2022/07/02 10:18:14;;;;;;;4.25;1.77;;;29.60;55.60;;;;;;5115421;28;20158;-54
2022/07/02 10:20:40;;;;;;;9.13;2.03;;;29.30;54.00;;;;;;5115576;28;20023;-55
2022/07/02 10:23:06;;;;;;;6.85;2.10;;;29.20;55.90;;;;;;5115440;28;20026;-55
2022/07/02 10:25:34;;;;;;;8.38;1.85;;;30.20;56.40;;;;;;5115234;28;20027;-55
2022/07/02 10:28:01;;;;;;;7.55;1.92;;;30.70;53.90;;;;;;5115308;28;20118;-54
2022/07/02 10:30:32;;;;;;;8.00;2.08;;;30.30;52.50;;;;;;5115121;28;20583;-55
2022/07/02 10:33:15;;;;;;;4.88;1.60;;;31.00;54.20;;;;;;5115039;28;20031;-55
2022/07/02 10:35:43;;;;;;;8.77;1.70;;;31.50;54.60;;;;;;5115207;28;20027;-55
2022/07/02 10:38:09;;;;;;;7.10;1.80;;;31.60;53.10;;;;;;5115168;28;20103;-54
2022/07/02 10:40:49;;;;;;;4.25;1.30;;;31.70;52.60;;;;;;5115021;28;20047;-55
2022/07/02 10:43:17;;;;;;;5.80;2.10;;;31.70;52.00;;;;;;5115182;28;20027;-55
2022/07/02 10:45:43;;;;;;;4.20;1.80;;;32.00;52.70;;;;;;5115038;28;20506;-54
2022/07/02 10:48:11;;;;;;;9.95;2.15;;;30.70;55.20;;;;;;5115098;28;20034;-55
2022/07/02 10:50:39;;;;;;;6.38;2.00;;;31.20;53.90;;;;;;5114993;28;20028;-55
2022/07/02 10:53:20;;;;;;;5.85;1.83;;;31.70;53.10;;;;;;5114907;28;20019;-54
2022/07/02 10:55:55;;;;;;;10.52;2.65;;;31.40;53.90;;;;;;5115022;28;20034;-55
2022/07/02 10:58:23;;;;;;;5.88;1.55;;;31.60;54.10;;;;;;5114957;28;20052;-55
2022/07/02 11:00:50;;;;;;;5.65;1.80;;;32.20;55.80;;;;;;5114963;28;20028;-55
2022/07/02 11:03:20;;;;;;;5.20;1.67;;;31.90;53.50;;;;;;5114780;28;20047;-55
2022/07/02 11:05:52;;;;;;;;;;;32.50;55.30;;;;;;5115457;28;20039;-55
2022/07/02 11:08:46;;;;;;;7.68;2.17;;;32.90;51.90;;;;;;5114919;28;19908;-55
2022/07/02 11:11:14;;;;;;;7.38;2.25;;;32.90;50.30;;;;;;5113261;28;20047;-55
2022/07/02 11:14:09;;;;;;;9.73;2.17;;;32.80;51.90;;;;;;5115016;28;20110;-55
2022/07/02 11:16:48;;;;;;;13.85;3.17;;;32.40;53.50;;;;;;5118987;28;20023;-55
2022/07/02 11:19:24;;;;;;;6.78;1.85;;;32.50;54.50;;;;;;5118899;28;20038;-55
2022/07/02 11:21:57;;;;;;;5.85;1.75;;;32.70;53.60;;;;;;5118944;28;20016;-55
2022/07/02 11:24:30;;;;;;;7.78;2.97;;;33.10;52.10;;;;;;5118753;28;20023;-55
2022/07/02 11:26:58;;;;;;;9.55;2.35;;;32.90;50.40;;;;;;5118759;28;20034;-55
2022/07/02 11:29:24;;;;;;;11.13;2.17;;;33.20;51.50;;;;;;5118822;28;20023;-55
2022/07/02 11:31:51;;;;;;;5.20;1.88;;;32.30;49.90;;;;;;5118674;28;20031;-55
2022/07/02 11:34:26;;;;;;;9.95;2.85;;;33.10;51.50;;;;;;5118730;28;20049;-55
2022/07/02 11:36:52;;;;;;;6.80;2.45;;;31.90;52.40;;;;;;5118665;28;20034;-55
2022/07/02 11:39:24;;;;;;;16.38;3.45;;;31.40;54.20;;;;;;5118690;28;20055;-55
2022/07/02 11:41:51;;;;;;;8.40;2.70;;;30.90;55.30;;;;;;5118813;28;20468;-55
2022/07/02 11:44:18;;;;;;;8.77;2.35;;;31.30;55.00;;;;;;5118422;28;20446;-55
2022/07/02 11:46:49;;;;;;;10.52;2.30;;;31.20;53.10;;;;;;5118513;28;20051;-55
2022/07/02 11:49:24;;;;;;;7.97;2.80;;;30.80;54.50;;;;;;5118271;28;20036;-55
2022/07/02 11:51:51;;;;;;;8.32;2.40;;;30.50;56.50;;;;;;5118276;28;20036;-54
2022/07/02 11:54:18;;;;;;;6.25;2.35;;;30.30;55.70;;;;;;5118256;28;20453;-55
2022/07/02 11:56:45;;;;;;;13.65;2.20;;;30.40;56.10;;;;;;5118161;28;20094;-55
2022/07/02 11:59:14;;;;;;;5.35;1.98;;;30.40;56.00;;;;;;5118142;28;20088;-55
2022/07/02 12:01:42;;;;;;;6.55;2.10;;;30.90;56.20;;;;;;5118013;28;20077;-55
2022/07/02 12:04:11;;;;;;;5.70;2.10;;;31.60;54.20;;;;;;5117891;28;20138;-55
2022/07/02 12:06:45;;;;;;;4.05;2.15;;;32.00;52.30;;;;;;5118075;28;20024;-55
2022/07/02 12:09:14;;;;;;;9.05;1.90;;;32.30;52.30;;;;;;5117929;28;20030;-55
2022/07/02 12:11:44;;;;;;;4.32;2.17;;;32.60;52.20;;;;;;5116726;28;20035;-55
2022/07/02 12:14:11;;;;;;;13.02;2.35;;;32.50;50.00;;;;;;5117827;28;20031;-55
2022/07/02 12:16:42;;;;;;;5.45;2.15;;;32.60;53.00;;;;;;5117938;28;20028;-55
2022/07/02 12:19:10;;;;;;;3.45;1.75;;;32.60;50.20;;;;;;5117796;28;20035;-55
2022/07/02 12:21:39;;;;;;;6.88;1.92;;;32.30;48.40;;;;;;5117901;28;20023;-55
2022/07/02 12:24:24;;;;;;;7.68;2.45;;;31.60;51.40;;;;;;5117688;28;20031;-55
2022/07/02 12:27:04;;;;;;;3.97;1.88;;;31.70;50.70;;;;;;5117497;28;20024;-55
2022/07/02 12:32:18;;;;;;;7.07;1.90;;;32.80;48.80;;;;;;5117460;28;20010;-55
2022/07/02 12:34:50;;;;;;;3.22;1.95;;;32.70;47.60;;;;;;5117449;28;20074;-55
2022/07/02 12:37:27;;;;;;;6.82;1.85;;;33.20;50.80;;;;;;5117462;28;20031;-55
2022/07/02 12:40:11;;;;;;;2.80;1.50;;;32.70;46.70;;;;;;5117472;27;20085;-54
2022/07/02 12:42:55;;;;;;;6.60;1.90;;;33.10;46.30;;;;;;5117316;28;20032;-55
2022/07/02 12:45:38;;;;;;;10.95;3.90;;;32.20;48.00;;;;;;5117216;28;20023;-55
2022/07/02 12:48:06;;;;;;;8.18;2.25;;;31.80;48.60;;;;;;5117223;28;20032;-55
2022/07/02 12:50:38;;;;;;;5.93;2.50;;;31.80;51.20;;;;;;5115995;28;20095;-55
2022/07/02 12:53:09;;;;;;;4.85;2.15;;;32.70;48.70;;;;;;5117036;28;20118;-55
2022/07/02 12:55:38;;;;;;;5.65;2.15;;;32.90;47.10;;;;;;5117048;28;20020;-55
2022/07/02 12:58:10;;;;;;;8.33;2.17;;;32.60;47.00;;;;;;5117082;28;20076;-55
2022/07/02 13:00:38;;;;;;;7.50;2.15;;;32.20;49.30;;;;;;5116926;28;20748;-55
2022/07/02 13:03:12;;;;;;;5.75;1.63;;;32.90;48.20;;;;;;5116876;28;20050;-55
2022/07/02 13:05:40;;;;;;;5.00;2.25;;;33.00;48.30;;;;;;5116931;28;20027;-54
2022/07/02 13:08:07;;;;;;;8.13;2.47;;;33.50;48.20;;;;;;5116743;28;20381;-55